sensor_id;sensor_type;location;lat;lon;timestamp;P1;durP1;ratioP1;P2;durP2;ratioP2
38085;SDS011;23896;50.678;10.924;2023-05-21T00:00:11;19.88;;;17.45;;
38085;SDS011;23896;50.678;10.924;2023-05-21T00:02:37;21.88;;;17.33;;
38085;SDS011;23896;50.678;10.924;2023-05-21T00:05:05;23.38;;;17.10;;
38085;SDS011;23896;50.678;10.924;2023-05-21T00:07:35;19.90;;;16.45;;
38085;SDS011;23896;50.678;10.924;2023-05-21T00:10:01;19.85;;;17.25;;
38085;SDS011;23896;50.678;10.924;2023-05-21T00:12:28;21.83;;;18.88;;
38085;SDS011;23896;50.678;10.924;2023-05-21T00:14:58;24.45;;;19.08;;
38085;SDS011;23896;50.678;10.924;2023-05-21T00:17:25;25.25;;;20.08;;
38085;SDS011;23896;50.678;10.924;2023-05-21T00:19:55;23.55;;;19.52;;
38085;SDS011;23896;50.678;10.924;2023-05-21T00:22:21;26.15;;;19.83;;
38085;SDS011;23896;50.678;10.924;2023-05-21T00:24:51;25.98;;;20.42;;
38085;SDS011;23896;50.678;10.924;2023-05-21T00:27:20;22.45;;;19.90;;
38085;SDS011;23896;50.678;10.924;2023-05-21T00:29:46;20.95;;;18.13;;
38085;SDS011;23896;50.678;10.924;2023-05-21T00:32:12;22.08;;;18.00;;
38085;SDS011;23896;50.678;10.924;2023-05-21T00:34:39;24.45;;;18.40;;
38085;SDS011;23896;50.678;10.924;2023-05-21T00:37:05;22.85;;;18.48;;
38085;SDS011;23896;50.678;10.924;2023-05-21T00:39:34;22.45;;;18.83;;
38085;SDS011;23896;50.678;10.924;2023-05-21T00:42:00;20.90;;;18.13;;
38085;SDS011;23896;50.678;10.924;2023-05-21T00:47:31;22.25;;;18.02;;
38085;SDS011;23896;50.678;10.924;2023-05-21T00:49:58;20.92;;;18.60;;
38085;SDS011;23896;50.678;10.924;2023-05-21T00:52:24;22.83;;;19.17;;
38085;SDS011;23896;50.678;10.924;2023-05-21T00:54:52;21.67;;;17.23;;
38085;SDS011;23896;50.678;10.924;2023-05-21T00:57:18;25.40;;;18.65;;
38085;SDS011;23896;50.678;10.924;2023-05-21T00:59:45;22.55;;;17.65;;
38085;SDS011;23896;50.678;10.924;2023-05-21T01:02:12;19.55;;;16.33;;
38085;SDS011;23896;50.678;10.924;2023-05-21T01:07:46;23.83;;;18.27;;
38085;SDS011;23896;50.678;10.924;2023-05-21T01:10:12;20.83;;;18.02;;
38085;SDS011;23896;50.678;10.924;2023-05-21T01:12:41;22.85;;;18.13;;
38085;SDS011;23896;50.678;10.924;2023-05-21T01:15:08;23.10;;;18.63;;
38085;SDS011;23896;50.678;10.924;2023-05-21T01:17:35;20.95;;;18.65;;
38085;SDS011;23896;50.678;10.924;2023-05-21T01:20:02;21.50;;;17.88;;
38085;SDS011;23896;50.678;10.924;2023-05-21T01:22:34;23.80;;;16.83;;
38085;SDS011;23896;50.678;10.924;2023-05-21T01:25:03;22.00;;;17.13;;
38085;SDS011;23896;50.678;10.924;2023-05-21T01:27:30;23.85;;;18.17;;
38085;SDS011;23896;50.678;10.924;2023-05-21T01:29:56;23.17;;;19.02;;
38085;SDS011;23896;50.678;10.924;2023-05-21T01:32:25;25.10;;;19.55;;
38085;SDS011;23896;50.678;10.924;2023-05-21T01:34:58;23.37;;;18.83;;
38085;SDS011;23896;50.678;10.924;2023-05-21T01:37:29;23.73;;;18.60;;
38085;SDS011;23896;50.678;10.924;2023-05-21T01:39:59;22.55;;;19.25;;
38085;SDS011;23896;50.678;10.924;2023-05-21T01:42:28;21.17;;;17.70;;
38085;SDS011;23896;50.678;10.924;2023-05-21T01:44:55;26.17;;;20.35;;
38085;SDS011;23896;50.678;10.924;2023-05-21T01:47:22;21.88;;;18.27;;
38085;SDS011;23896;50.678;10.924;2023-05-21T01:49:50;22.35;;;18.95;;
38085;SDS011;23896;50.678;10.924;2023-05-21T01:52:17;25.13;;;19.05;;
38085;SDS011;23896;50.678;10.924;2023-05-21T01:54:43;23.50;;;18.33;;
38085;SDS011;23896;50.678;10.924;2023-05-21T01:57:10;20.08;;;17.15;;
38085;SDS011;23896;50.678;10.924;2023-05-21T01:59:36;21.95;;;16.88;;
38085;SDS011;23896;50.678;10.924;2023-05-21T02:02:03;19.27;;;15.95;;
38085;SDS011;23896;50.678;10.924;2023-05-21T02:04:29;24.67;;;17.23;;
38085;SDS011;23896;50.678;10.924;2023-05-21T02:06:55;21.83;;;18.02;;
38085;SDS011;23896;50.678;10.924;2023-05-21T02:09:22;24.13;;;19.70;;
38085;SDS011;23896;50.678;10.924;2023-05-21T02:11:48;22.15;;;18.30;;
38085;SDS011;23896;50.678;10.924;2023-05-21T02:14:14;23.60;;;17.67;;
38085;SDS011;23896;50.678;10.924;2023-05-21T02:16:40;25.45;;;20.20;;
38085;SDS011;23896;50.678;10.924;2023-05-21T02:19:07;24.60;;;19.25;;
38085;SDS011;23896;50.678;10.924;2023-05-21T02:21:34;22.92;;;17.45;;
38085;SDS011;23896;50.678;10.924;2023-05-21T02:24:01;21.77;;;17.50;;
38085;SDS011;23896;50.678;10.924;2023-05-21T02:26:27;18.58;;;16.67;;
38085;SDS011;23896;50.678;10.924;2023-05-21T02:41:23;19.88;;;17.05;;
38085;SDS011;23896;50.678;10.924;2023-05-21T02:44:08;23.05;;;18.88;;
38085;SDS011;23896;50.678;10.924;2023-05-21T02:46:34;22.95;;;19.58;;
38085;SDS011;23896;50.678;10.924;2023-05-21T02:58:29;24.92;;;20.52;;
38085;SDS011;23896;50.678;10.924;2023-05-21T03:01:40;26.73;;;19.80;;
38085;SDS011;23896;50.678;10.924;2023-05-21T03:04:45;24.55;;;18.23;;
38085;SDS011;23896;50.678;10.924;2023-05-21T03:10:34;21.35;;;16.73;;
38085;SDS011;23896;50.678;10.924;2023-05-21T03:13:00;21.83;;;17.60;;
38085;SDS011;23896;50.678;10.924;2023-05-21T03:15:29;18.98;;;16.35;;
38085;SDS011;23896;50.678;10.924;2023-05-21T03:27:07;22.00;;;17.42;;
38085;SDS011;23896;50.678;10.924;2023-05-21T03:29:33;22.58;;;18.50;;
38085;SDS011;23896;50.678;10.924;2023-05-21T03:32:00;22.42;;;18.42;;
38085;SDS011;23896;50.678;10.924;2023-05-21T03:34:26;21.05;;;18.08;;
38085;SDS011;23896;50.678;10.924;2023-05-21T03:43:04;21.00;;;18.17;;
38085;SDS011;23896;50.678;10.924;2023-05-21T03:48:41;21.20;;;17.25;;
38085;SDS011;23896;50.678;10.924;2023-05-21T03:51:10;19.88;;;17.73;;
38085;SDS011;23896;50.678;10.924;2023-05-21T03:53:37;20.70;;;17.42;;
38085;SDS011;23896;50.678;10.924;2023-05-21T03:56:03;19.77;;;17.27;;
38085;SDS011;23896;50.678;10.924;2023-05-21T03:58:29;18.02;;;16.13;;
38085;SDS011;23896;50.678;10.924;2023-05-21T04:00:56;18.88;;;16.83;;
38085;SDS011;23896;50.678;10.924;2023-05-21T04:03:28;24.20;;;18.50;;
38085;SDS011;23896;50.678;10.924;2023-05-21T04:06:26;20.83;;;17.63;;
38085;SDS011;23896;50.678;10.924;2023-05-21T04:09:11;21.83;;;18.52;;
38085;SDS011;23896;50.678;10.924;2023-05-21T04:11:48;20.58;;;17.40;;
38085;SDS011;23896;50.678;10.924;2023-05-21T04:14:15;21.63;;;17.15;;
38085;SDS011;23896;50.678;10.924;2023-05-21T04:23:16;19.73;;;16.33;;
38085;SDS011;23896;50.678;10.924;2023-05-21T04:28:14;18.40;;;15.52;;
38085;SDS011;23896;50.678;10.924;2023-05-21T04:30:47;19.40;;;16.58;;
38085;SDS011;23896;50.678;10.924;2023-05-21T04:36:21;22.65;;;18.80;;
38085;SDS011;23896;50.678;10.924;2023-05-21T04:39:01;19.13;;;16.40;;
38085;SDS011;23896;50.678;10.924;2023-05-21T04:44:25;21.45;;;18.25;;
38085;SDS011;23896;50.678;10.924;2023-05-21T04:46:51;20.60;;;17.10;;
38085;SDS011;23896;50.678;10.924;2023-05-21T04:52:05;20.13;;;17.15;;
38085;SDS011;23896;50.678;10.924;2023-05-21T04:54:35;20.27;;;16.30;;
38085;SDS011;23896;50.678;10.924;2023-05-21T04:57:08;19.33;;;17.30;;
38085;SDS011;23896;50.678;10.924;2023-05-21T04:59:35;19.83;;;17.52;;
38085;SDS011;23896;50.678;10.924;2023-05-21T05:02:01;22.70;;;17.10;;
38085;SDS011;23896;50.678;10.924;2023-05-21T05:04:30;18.30;;;16.27;;
38085;SDS011;23896;50.678;10.924;2023-05-21T05:07:06;21.65;;;18.00;;
38085;SDS011;23896;50.678;10.924;2023-05-21T05:13:18;18.85;;;16.85;;
38085;SDS011;23896;50.678;10.924;2023-05-21T05:16:08;21.05;;;17.27;;
38085;SDS011;23896;50.678;10.924;2023-05-21T05:18:36;20.02;;;17.13;;
38085;SDS011;23896;50.678;10.924;2023-05-21T05:21:06;29.42;;;21.52;;
38085;SDS011;23896;50.678;10.924;2023-05-21T05:23:42;35.88;;;27.95;;
38085;SDS011;23896;50.678;10.924;2023-05-21T05:26:21;29.08;;;24.73;;
38085;SDS011;23896;50.678;10.924;2023-05-21T05:29:20;24.27;;;21.58;;
38085;SDS011;23896;50.678;10.924;2023-05-21T05:32:06;26.85;;;22.17;;
38085;SDS011;23896;50.678;10.924;2023-05-21T05:34:49;22.38;;;19.30;;
38085;SDS011;23896;50.678;10.924;2023-05-21T05:37:22;23.70;;;19.02;;
38085;SDS011;23896;50.678;10.924;2023-05-21T05:39:52;22.13;;;19.50;;
38085;SDS011;23896;50.678;10.924;2023-05-21T05:42:34;24.23;;;18.98;;
38085;SDS011;23896;50.678;10.924;2023-05-21T05:45:16;23.00;;;19.80;;
38085;SDS011;23896;50.678;10.924;2023-05-21T05:54:23;28.63;;;22.55;;
38085;SDS011;23896;50.678;10.924;2023-05-21T05:57:22;28.95;;;22.27;;
38085;SDS011;23896;50.678;10.924;2023-05-21T06:00:11;27.95;;;22.30;;
38085;SDS011;23896;50.678;10.924;2023-05-21T06:03:04;29.95;;;23.33;;
38085;SDS011;23896;50.678;10.924;2023-05-21T06:05:39;28.75;;;22.13;;
38085;SDS011;23896;50.678;10.924;2023-05-21T06:08:29;29.10;;;23.73;;
38085;SDS011;23896;50.678;10.924;2023-05-21T06:11:12;28.83;;;23.30;;
38085;SDS011;23896;50.678;10.924;2023-05-21T06:14:08;31.98;;;22.92;;
38085;SDS011;23896;50.678;10.924;2023-05-21T06:17:04;34.70;;;24.73;;
38085;SDS011;23896;50.678;10.924;2023-05-21T06:19:40;34.75;;;24.35;;
38085;SDS011;23896;50.678;10.924;2023-05-21T06:22:17;67.07;;;30.42;;
38085;SDS011;23896;50.678;10.924;2023-05-21T06:25:00;48.30;;;26.02;;
38085;SDS011;23896;50.678;10.924;2023-05-21T06:27:32;34.13;;;25.23;;
38085;SDS011;23896;50.678;10.924;2023-05-21T06:30:04;29.85;;;22.98;;
38085;SDS011;23896;50.678;10.924;2023-05-21T06:32:53;32.72;;;25.35;;
38085;SDS011;23896;50.678;10.924;2023-05-21T06:35:35;31.75;;;24.02;;
38085;SDS011;23896;50.678;10.924;2023-05-21T06:38:04;37.30;;;26.52;;
38085;SDS011;23896;50.678;10.924;2023-05-21T06:40:51;31.15;;;23.10;;
38085;SDS011;23896;50.678;10.924;2023-05-21T06:43:41;30.83;;;24.08;;
38085;SDS011;23896;50.678;10.924;2023-05-21T06:46:31;29.90;;;23.15;;
38085;SDS011;23896;50.678;10.924;2023-05-21T06:52:14;30.70;;;24.77;;
38085;SDS011;23896;50.678;10.924;2023-05-21T06:54:55;30.15;;;24.00;;
38085;SDS011;23896;50.678;10.924;2023-05-21T06:57:23;31.52;;;23.85;;
38085;SDS011;23896;50.678;10.924;2023-05-21T13:04:43;11.40;;;7.13;;
38085;SDS011;23896;50.678;10.924;2023-05-21T13:07:21;9.68;;;8.65;;
38085;SDS011;23896;50.678;10.924;2023-05-21T13:10:08;8.95;;;8.02;;
38085;SDS011;23896;50.678;10.924;2023-05-21T13:12:43;9.52;;;8.52;;
38085;SDS011;23896;50.678;10.924;2023-05-21T13:15:10;10.20;;;7.93;;
38085;SDS011;23896;50.678;10.924;2023-05-21T13:17:39;8.55;;;7.25;;
38085;SDS011;23896;50.678;10.924;2023-05-21T13:20:35;9.98;;;8.05;;
38085;SDS011;23896;50.678;10.924;2023-05-21T13:25:44;12.15;;;7.57;;
38085;SDS011;23896;50.678;10.924;2023-05-21T13:28:23;11.20;;;7.68;;
38085;SDS011;23896;50.678;10.924;2023-05-21T13:30:50;8.82;;;8.00;;
38085;SDS011;23896;50.678;10.924;2023-05-21T13:33:36;8.57;;;7.40;;
38085;SDS011;23896;50.678;10.924;2023-05-21T13:36:09;7.90;;;7.28;;
38085;SDS011;23896;50.678;10.924;2023-05-21T13:38:37;9.50;;;7.45;;
38085;SDS011;23896;50.678;10.924;2023-05-21T13:41:09;10.68;;;7.78;;
38085;SDS011;23896;50.678;10.924;2023-05-21T13:43:41;8.02;;;7.32;;
38085;SDS011;23896;50.678;10.924;2023-05-21T13:46:09;8.68;;;7.88;;
38085;SDS011;23896;50.678;10.924;2023-05-21T13:48:50;8.07;;;7.28;;
38085;SDS011;23896;50.678;10.924;2023-05-21T13:51:19;12.43;;;7.60;;
38085;SDS011;23896;50.678;10.924;2023-05-21T13:53:47;8.00;;;6.75;;
38085;SDS011;23896;50.678;10.924;2023-05-21T13:56:16;9.48;;;7.25;;
38085;SDS011;23896;50.678;10.924;2023-05-21T13:58:44;8.68;;;6.72;;
38085;SDS011;23896;50.678;10.924;2023-05-21T14:01:13;7.00;;;6.30;;
38085;SDS011;23896;50.678;10.924;2023-05-21T14:03:42;8.02;;;7.32;;
38085;SDS011;23896;50.678;10.924;2023-05-21T14:06:08;6.60;;;6.00;;
38085;SDS011;23896;50.678;10.924;2023-05-21T14:08:44;7.00;;;6.40;;
38085;SDS011;23896;50.678;10.924;2023-05-21T14:14:04;10.40;;;7.25;;
38085;SDS011;23896;50.678;10.924;2023-05-21T14:16:31;10.68;;;9.07;;
38085;SDS011;23896;50.678;10.924;2023-05-21T14:18:59;12.65;;;11.38;;
38085;SDS011;23896;50.678;10.924;2023-05-21T14:21:54;8.10;;;7.40;;
38085;SDS011;23896;50.678;10.924;2023-05-21T14:25:21;8.43;;;7.38;;
38085;SDS011;23896;50.678;10.924;2023-05-21T14:36:10;8.93;;;7.32;;
38085;SDS011;23896;50.678;10.924;2023-05-21T14:41:51;7.00;;;6.40;;
38085;SDS011;23896;50.678;10.924;2023-05-21T14:44:55;7.35;;;6.65;;
38085;SDS011;23896;50.678;10.924;2023-05-21T14:47:41;6.57;;;5.93;;
38085;SDS011;23896;50.678;10.924;2023-05-21T14:50:21;7.00;;;6.50;;
38085;SDS011;23896;50.678;10.924;2023-05-21T14:53:08;8.05;;;7.32;;
38085;SDS011;23896;50.678;10.924;2023-05-21T14:55:56;7.55;;;6.95;;
38085;SDS011;23896;50.678;10.924;2023-05-21T14:58:38;7.78;;;6.93;;
38085;SDS011;23896;50.678;10.924;2023-05-21T15:01:14;7.25;;;6.55;;
38085;SDS011;23896;50.678;10.924;2023-05-21T15:03:48;11.40;;;8.03;;
38085;SDS011;23896;50.678;10.924;2023-05-21T15:06:26;8.52;;;7.28;;
38085;SDS011;23896;50.678;10.924;2023-05-21T15:09:01;6.43;;;5.93;;
38085;SDS011;23896;50.678;10.924;2023-05-21T15:30:52;8.30;;;7.50;;
38085;SDS011;23896;50.678;10.924;2023-05-21T15:39:41;7.45;;;6.43;;
38085;SDS011;23896;50.678;10.924;2023-05-21T15:42:53;8.10;;;7.28;;
38085;SDS011;23896;50.678;10.924;2023-05-21T15:45:30;8.95;;;7.40;;
38085;SDS011;23896;50.678;10.924;2023-05-21T15:48:29;10.27;;;6.97;;
38085;SDS011;23896;50.678;10.924;2023-05-21T15:51:29;7.32;;;6.72;;
38085;SDS011;23896;50.678;10.924;2023-05-21T15:54:27;10.77;;;7.18;;
38085;SDS011;23896;50.678;10.924;2023-05-21T16:00:40;7.57;;;6.85;;
38085;SDS011;23896;50.678;10.924;2023-05-21T16:09:29;7.97;;;6.93;;
38085;SDS011;23896;50.678;10.924;2023-05-21T16:15:41;9.45;;;8.55;;
38085;SDS011;23896;50.678;10.924;2023-05-21T16:34:44;8.07;;;7.28;;
38085;SDS011;23896;50.678;10.924;2023-05-21T17:15:08;14.98;;;13.38;;
38085;SDS011;23896;50.678;10.924;2023-05-21T17:33:31;9.05;;;8.15;;
38085;SDS011;23896;50.678;10.924;2023-05-21T17:35:58;11.13;;;8.18;;
38085;SDS011;23896;50.678;10.924;2023-05-21T17:38:29;8.80;;;7.88;;
38085;SDS011;23896;50.678;10.924;2023-05-21T17:41:00;10.77;;;8.95;;
38085;SDS011;23896;50.678;10.924;2023-05-21T17:43:50;16.58;;;13.05;;
38085;SDS011;23896;50.678;10.924;2023-05-21T17:46:18;18.90;;;14.93;;
38085;SDS011;23896;50.678;10.924;2023-05-21T18:00:28;10.90;;;8.30;;
38085;SDS011;23896;50.678;10.924;2023-05-21T18:05:49;8.73;;;7.95;;
38085;SDS011;23896;50.678;10.924;2023-05-21T18:08:16;11.30;;;9.50;;
38085;SDS011;23896;50.678;10.924;2023-05-21T18:10:43;12.73;;;10.27;;
38085;SDS011;23896;50.678;10.924;2023-05-21T18:13:11;10.10;;;9.15;;
38085;SDS011;23896;50.678;10.924;2023-05-21T18:15:38;11.10;;;10.10;;
38085;SDS011;23896;50.678;10.924;2023-05-21T18:18:04;15.32;;;11.57;;
38085;SDS011;23896;50.678;10.924;2023-05-21T18:20:40;12.60;;;10.00;;
38085;SDS011;23896;50.678;10.924;2023-05-21T18:28:34;11.02;;;9.07;;
38085;SDS011;23896;50.678;10.924;2023-05-21T18:41:52;9.77;;;8.88;;
38085;SDS011;23896;50.678;10.924;2023-05-21T18:44:27;13.98;;;9.65;;
38085;SDS011;23896;50.678;10.924;2023-05-21T18:47:10;12.50;;;10.30;;
38085;SDS011;23896;50.678;10.924;2023-05-21T18:57:55;13.45;;;11.02;;
38085;SDS011;23896;50.678;10.924;2023-05-21T19:00:24;11.77;;;9.95;;
38085;SDS011;23896;50.678;10.924;2023-05-21T19:02:50;19.30;;;17.13;;
38085;SDS011;23896;50.678;10.924;2023-05-21T19:05:20;29.23;;;26.13;;
38085;SDS011;23896;50.678;10.924;2023-05-21T19:07:49;18.35;;;12.93;;
38085;SDS011;23896;50.678;10.924;2023-05-21T19:10:18;11.05;;;9.65;;
38085;SDS011;23896;50.678;10.924;2023-05-21T19:12:44;14.68;;;9.10;;
38085;SDS011;23896;50.678;10.924;2023-05-21T19:15:13;11.15;;;9.45;;
38085;SDS011;23896;50.678;10.924;2023-05-21T19:17:39;11.27;;;10.25;;
38085;SDS011;23896;50.678;10.924;2023-05-21T19:20:06;10.18;;;9.13;;
38085;SDS011;23896;50.678;10.924;2023-05-21T19:22:33;9.85;;;8.88;;
38085;SDS011;23896;50.678;10.924;2023-05-21T19:25:19;10.50;;;9.45;;
38085;SDS011;23896;50.678;10.924;2023-05-21T19:28:02;17.90;;;14.65;;
38085;SDS011;23896;50.678;10.924;2023-05-21T19:30:33;21.23;;;15.00;;
38085;SDS011;23896;50.678;10.924;2023-05-21T19:33:00;15.23;;;13.63;;
38085;SDS011;23896;50.678;10.924;2023-05-21T19:35:26;12.10;;;10.52;;
38085;SDS011;23896;50.678;10.924;2023-05-21T19:38:01;13.73;;;11.45;;
38085;SDS011;23896;50.678;10.924;2023-05-21T19:40:30;12.73;;;11.15;;
38085;SDS011;23896;50.678;10.924;2023-05-21T19:42:57;11.20;;;10.00;;
38085;SDS011;23896;50.678;10.924;2023-05-21T19:45:42;11.55;;;10.43;;
38085;SDS011;23896;50.678;10.924;2023-05-21T19:48:10;12.30;;;10.63;;
38085;SDS011;23896;50.678;10.924;2023-05-21T19:54:16;11.80;;;10.70;;
38085;SDS011;23896;50.678;10.924;2023-05-21T19:56:38;14.25;;;11.23;;
38085;SDS011;23896;50.678;10.924;2023-05-21T19:59:12;13.55;;;11.77;;
38085;SDS011;23896;50.678;10.924;2023-05-21T20:01:47;14.57;;;11.73;;
38085;SDS011;23896;50.678;10.924;2023-05-21T20:04:22;14.50;;;12.45;;
38085;SDS011;23896;50.678;10.924;2023-05-21T20:07:45;13.50;;;12.10;;
38085;SDS011;23896;50.678;10.924;2023-05-21T20:13:55;12.52;;;11.32;;
38085;SDS011;23896;50.678;10.924;2023-05-21T20:16:41;14.45;;;12.18;;
38085;SDS011;23896;50.678;10.924;2023-05-21T20:19:26;14.80;;;11.48;;
38085;SDS011;23896;50.678;10.924;2023-05-21T20:22:05;20.40;;;13.18;;
38085;SDS011;23896;50.678;10.924;2023-05-21T20:33:35;12.25;;;10.95;;
38085;SDS011;23896;50.678;10.924;2023-05-21T20:36:01;13.68;;;10.95;;
38085;SDS011;23896;50.678;10.924;2023-05-21T20:38:31;14.88;;;11.02;;
38085;SDS011;23896;50.678;10.924;2023-05-21T20:40:57;12.52;;;11.20;;
38085;SDS011;23896;50.678;10.924;2023-05-21T20:43:43;12.15;;;10.95;;
38085;SDS011;23896;50.678;10.924;2023-05-21T20:46:11;11.93;;;10.77;;
38085;SDS011;23896;50.678;10.924;2023-05-21T20:48:38;15.82;;;10.75;;
38085;SDS011;23896;50.678;10.924;2023-05-21T20:51:05;18.77;;;11.40;;
38085;SDS011;23896;50.678;10.924;2023-05-21T20:53:32;12.82;;;10.85;;
38085;SDS011;23896;50.678;10.924;2023-05-21T20:56:01;15.32;;;12.95;;
38085;SDS011;23896;50.678;10.924;2023-05-21T20:58:32;12.82;;;11.52;;
38085;SDS011;23896;50.678;10.924;2023-05-21T21:00:58;13.05;;;11.55;;
38085;SDS011;23896;50.678;10.924;2023-05-21T21:03:28;19.02;;;11.90;;
38085;SDS011;23896;50.678;10.924;2023-05-21T21:06:00;12.68;;;11.38;;
38085;SDS011;23896;50.678;10.924;2023-05-21T21:08:30;12.30;;;11.20;;
38085;SDS011;23896;50.678;10.924;2023-05-21T21:10:58;14.43;;;11.75;;
38085;SDS011;23896;50.678;10.924;2023-05-21T21:13:28;12.10;;;10.75;;
38085;SDS011;23896;50.678;10.924;2023-05-21T21:22:35;13.25;;;11.85;;
38085;SDS011;23896;50.678;10.924;2023-05-21T21:25:01;16.00;;;12.87;;
38085;SDS011;23896;50.678;10.924;2023-05-21T21:28:02;12.98;;;11.63;;
38085;SDS011;23896;50.678;10.924;2023-05-21T21:31:07;13.07;;;11.73;;
38085;SDS011;23896;50.678;10.924;2023-05-21T21:33:26;17.13;;;11.88;;
38085;SDS011;23896;50.678;10.924;2023-05-21T21:36:09;12.70;;;11.50;;
38085;SDS011;23896;50.678;10.924;2023-05-21T21:38:49;12.80;;;11.60;;
38085;SDS011;23896;50.678;10.924;2023-05-21T21:41:39;12.57;;;11.38;;
38085;SDS011;23896;50.678;10.924;2023-05-21T21:44:06;15.52;;;12.95;;
38085;SDS011;23896;50.678;10.924;2023-05-21T21:46:32;16.02;;;14.27;;
38085;SDS011;23896;50.678;10.924;2023-05-21T21:48:59;15.07;;;13.48;;
38085;SDS011;23896;50.678;10.924;2023-05-21T21:51:31;15.97;;;14.27;;
38085;SDS011;23896;50.678;10.924;2023-05-21T21:54:02;18.05;;;15.43;;
38085;SDS011;23896;50.678;10.924;2023-05-21T21:56:28;13.25;;;11.95;;
38085;SDS011;23896;50.678;10.924;2023-05-21T22:07:25;13.43;;;11.98;;
38085;SDS011;23896;50.678;10.924;2023-05-21T22:09:52;14.85;;;13.30;;
38085;SDS011;23896;50.678;10.924;2023-05-21T22:12:19;15.07;;;13.57;;
38085;SDS011;23896;50.678;10.924;2023-05-21T22:14:49;14.60;;;13.15;;
38085;SDS011;23896;50.678;10.924;2023-05-21T22:17:16;15.07;;;13.60;;
38085;SDS011;23896;50.678;10.924;2023-05-21T22:19:43;16.67;;;14.60;;
38085;SDS011;23896;50.678;10.924;2023-05-21T22:22:09;16.33;;;14.63;;
38085;SDS011;23896;50.678;10.924;2023-05-21T22:24:36;15.05;;;13.43;;
38085;SDS011;23896;50.678;10.924;2023-05-21T22:27:05;15.38;;;13.55;;
38085;SDS011;23896;50.678;10.924;2023-05-21T22:29:34;17.23;;;12.77;;
38085;SDS011;23896;50.678;10.924;2023-05-21T22:32:00;13.18;;;11.98;;
38085;SDS011;23896;50.678;10.924;2023-05-21T22:34:30;14.57;;;13.10;;
38085;SDS011;23896;50.678;10.924;2023-05-21T22:36:58;14.68;;;13.18;;
38085;SDS011;23896;50.678;10.924;2023-05-21T22:39:28;15.13;;;13.70;;
38085;SDS011;23896;50.678;10.924;2023-05-21T22:41:54;15.20;;;13.70;;
38085;SDS011;23896;50.678;10.924;2023-05-21T22:44:20;15.10;;;13.52;;
38085;SDS011;23896;50.678;10.924;2023-05-21T22:46:46;14.95;;;13.48;;
38085;SDS011;23896;50.678;10.924;2023-05-21T22:49:13;17.98;;;14.55;;
38085;SDS011;23896;50.678;10.924;2023-05-21T22:51:40;15.10;;;13.60;;
38085;SDS011;23896;50.678;10.924;2023-05-21T22:54:09;14.02;;;12.73;;
38085;SDS011;23896;50.678;10.924;2023-05-21T22:56:35;15.05;;;12.57;;
38085;SDS011;23896;50.678;10.924;2023-05-21T22:59:01;15.48;;;13.38;;
38085;SDS011;23896;50.678;10.924;2023-05-21T23:01:27;14.82;;;13.35;;
38085;SDS011;23896;50.678;10.924;2023-05-21T23:03:55;15.55;;;13.80;;
38085;SDS011;23896;50.678;10.924;2023-05-21T23:06:22;17.70;;;13.00;;
38085;SDS011;23896;50.678;10.924;2023-05-21T23:08:48;15.23;;;12.95;;
38085;SDS011;23896;50.678;10.924;2023-05-21T23:11:14;17.15;;;13.52;;
38085;SDS011;23896;50.678;10.924;2023-05-21T23:13:40;12.43;;;11.32;;
38085;SDS011;23896;50.678;10.924;2023-05-21T23:16:06;16.58;;;13.73;;
38085;SDS011;23896;50.678;10.924;2023-05-21T23:18:33;14.80;;;13.13;;
38085;SDS011;23896;50.678;10.924;2023-05-21T23:21:00;16.75;;;14.88;;
38085;SDS011;23896;50.678;10.924;2023-05-21T23:23:26;15.18;;;13.63;;
38085;SDS011;23896;50.678;10.924;2023-05-21T23:25:52;15.57;;;13.82;;
38085;SDS011;23896;50.678;10.924;2023-05-21T23:28:21;14.35;;;12.80;;
38085;SDS011;23896;50.678;10.924;2023-05-21T23:30:48;20.90;;;14.07;;
38085;SDS011;23896;50.678;10.924;2023-05-21T23:33:16;14.43;;;12.25;;
38085;SDS011;23896;50.678;10.924;2023-05-21T23:35:46;14.65;;;13.13;;
38085;SDS011;23896;50.678;10.924;2023-05-21T23:38:12;15.20;;;13.43;;
38085;SDS011;23896;50.678;10.924;2023-05-21T23:40:38;15.88;;;14.18;;
38085;SDS011;23896;50.678;10.924;2023-05-21T23:43:07;14.95;;;13.55;;
38085;SDS011;23896;50.678;10.924;2023-05-21T23:45:33;14.15;;;12.65;;
38085;SDS011;23896;50.678;10.924;2023-05-21T23:48:08;16.80;;;14.30;;
38085;SDS011;23896;50.678;10.924;2023-05-21T23:50:35;14.43;;;12.93;;
38085;SDS011;23896;50.678;10.924;2023-05-21T23:53:02;14.63;;;13.13;;
38085;SDS011;23896;50.678;10.924;2023-05-21T23:55:28;13.07;;;11.68;;
38085;SDS011;23896;50.678;10.924;2023-05-21T23:57:54;14.85;;;13.02;;
